Accueil
METAR-TAF:

METAR-TAF

Aéroports :

Seiyun, Yémen

latitude: 15-58N, longitude: 048-48E, altitude: 701 m

Observation

Le bulletin a été fait il y a 1 heure et 14 minutes, à 02:00 UTC
Vent 5 kt de sud/sud-ouest
Température 31°C
Humidité 36%
Pression 1004 hPa
Visibilité 10 km ou plus
pas de nuages en-dessous de 1500 mètres et pas de cumulonimbus.

METAR: OYSY 220200Z 20005KT CAVOK 31/14 Q1004

Heure: 06:14 (03:14 UTC)


TAF: absent

Observations et prévisions météorologiques de plus de 4000 aéroports (messages METAR et TAF).

Les stations disponibles sont représentées par des disques jaunes et rouges sur la carte.

Passer la souris dessus pour voir le nom de la station.

Cliquer dessus pour voir les observations et prévisions météorologiques.

Pour changer de carte: cliquez sur les boutons verts avec une croix noire pour zoomer, sur le bouton vert avec un tiret pour effectuer un zoom arrière, ou sur les flèches vertes pour les cartes adjacentes.


METAR-TAF: